Cape Girardeau, MO

7:06 AM CDT on August 27, 2014 (GMT -0500)
Timber Creek | Change Station
CLOSE
Current Station
Personal Weather Station
Location: Cape Girardeau, MO
Elevation: 440 ft
Nearby Weather Stations
Active Advisory: Heat Advisory

Elev 440 ft 37.34 °N, 89.54 °W | Updated 25 seconds ago

Fog
Fog
72.7 °F
Feels Like 72.7 °F
N
0.0
Wind Variable Wind from SW
Gusts 0.0 mph

Today
High -- | Low -- °F
--% Chance of Precip.
Yesterday
High -- | Low -- °F
Precip. -- in
6:24 AM 7:34 PM
Waxing Crescent, 3% visible
Pressure 30.08 in
Visibility 0.2 miles
Clouds
Dew Point 71 °F
Humidity 95%
Rainfall 0.00 in
Snow Depth Not available.
UV 0.0 out of 12
Pollen 10.60 out of 12
Air Quality Not available.
Flu Activity Not available.
SPECI KCGI 271201Z 00000KT 1/4SM FG VV002 22/21 A3008 RMK AO2 T02170211

More Conditions Fewer Conditions

Pressure 30.08 in
Visibility 0.2 miles
Clouds
Dew Point 71 °F
Humidity 95%
Rainfall 0.00 in
Snow Depth Not available.
UV 0.0 out of 12
Pollen 10.60 out of 12
Air Quality Not available.
Flu Activity Not available.
SPECI KCGI 271201Z 00000KT 1/4SM FG VV002 22/21 A3008 RMK AO2 T02170211

More Conditions Fewer Conditions

10-Day Weather Forecast

Almanac

Astronomy

Aug. 27, 2014 Rise Set
Actual Time 6:24 AM CDT 7:34 PM CDT
Civil Twilight 5:57 AM CDT 8:01 PM CDT
Nautical Twilight 5:25 AM CDT 8:33 PM CDT
Astronomical Twilight 4:51 AM CDT 9:06 PM CDT
Moon 8:17 AM CDT 8:30 PM CDT
Length of Visible Light 14h 03m
Length of Day
13h 09m
Tomorrow will be 2m 15s shorter.
Waxing Crescent, 3% of the Moon is Illuminated
Today
Waxing Crescent
Sep 2
First Quarter
Sep 8
Full
Sep 15
Last Quarter
Sep 24
New

Today's Extremes

State Highs State Lows

Community

WunderPhotos

Upload Photos

1,747,673 photos uploaded!

Nearby

Snow Depth

Station Depth Elevation
No new snow has been reported.

Earthquake Activity

City Distance Mag. Time & Date
No recent earthquake activity has been reported nearby.
Minimum magnitude displayed is 2.5.

Coastal Water Temperatures

Place Temperature
No Stations Reporting

Nearby Weather Stations